createdAt,value
2023-05-10T00:03:59.102Z,11.90
2023-05-10T00:08:07.506Z,12.90
2023-05-10T00:12:15.767Z,12.20
2023-05-10T00:16:24.044Z,13.90
2023-05-10T00:20:31.420Z,14.70
2023-05-10T00:24:39.947Z,15.70
2023-05-10T00:28:47.711Z,13.30
2023-05-10T00:32:55.690Z,12.80
2023-05-10T00:37:03.813Z,16.50
2023-05-10T00:41:11.982Z,13.60
2023-05-10T00:45:20.295Z,12.00
2023-05-10T00:49:28.442Z,13.00
2023-05-10T00:53:38.029Z,12.90
2023-05-10T00:57:45.936Z,12.30
2023-05-10T01:01:53.830Z,15.00
2023-05-10T01:06:01.873Z,13.20
2023-05-10T01:10:11.813Z,11.30
2023-05-10T01:14:22.570Z,13.20
2023-05-10T01:18:31.415Z,13.80
2023-05-10T01:22:55.531Z,17.70
2023-05-10T01:27:20.948Z,12.10
2023-05-10T01:31:38.128Z,13.30
2023-05-10T01:35:53.246Z,12.00
2023-05-10T01:40:06.424Z,11.60
2023-05-10T01:44:22.249Z,13.40
2023-05-10T01:48:31.555Z,14.40
2023-05-10T01:52:43.416Z,13.00
2023-05-10T01:56:52.992Z,13.10
2023-05-10T02:01:02.826Z,11.60
2023-05-10T02:05:11.723Z,14.70
2023-05-10T02:09:20.573Z,13.70
2023-05-10T02:13:30.228Z,12.60
2023-05-10T02:17:39.874Z,11.80
2023-05-10T02:21:47.259Z,14.50
2023-05-10T02:25:56.141Z,13.90
2023-05-10T02:30:04.074Z,12.50
2023-05-10T02:34:12.399Z,12.70
2023-05-10T02:38:21.728Z,13.70
2023-05-10T02:42:31.383Z,13.10
2023-05-10T02:46:39.583Z,12.20
2023-05-10T02:50:52.547Z,12.20
2023-05-10T02:55:05.378Z,16.10
2023-05-10T02:59:16.083Z,14.20
2023-05-10T03:03:24.029Z,13.20
2023-05-10T03:07:32.115Z,11.90
2023-05-10T03:11:50.721Z,12.20
2023-05-10T03:16:05.069Z,12.10
2023-05-10T03:20:15.968Z,12.80
2023-05-10T03:24:25.655Z,14.50
2023-05-10T03:28:37.724Z,13.10
2023-05-10T03:32:45.662Z,12.90
2023-05-10T03:36:53.050Z,13.10
2023-05-10T03:41:00.988Z,14.00
2023-05-10T03:45:11.850Z,12.50
2023-05-10T03:49:19.936Z,13.90
2023-05-10T03:53:28.030Z,14.80
2023-05-10T03:57:35.506Z,13.60
2023-05-10T04:01:43.597Z,12.70
2023-05-10T04:05:51.038Z,13.60
2023-05-10T04:09:59.328Z,13.60
2023-05-10T04:14:06.796Z,14.00
2023-05-10T04:18:14.997Z,14.90
2023-05-10T04:22:22.990Z,13.80
2023-05-10T04:26:30.760Z,13.80
2023-05-10T04:30:39.645Z,14.60
2023-05-10T04:34:48.052Z,13.30
2023-05-10T04:38:56.231Z,14.90
2023-05-10T04:43:04.252Z,14.00
2023-05-10T04:47:12.924Z,15.00
2023-05-10T04:51:21.684Z,12.40
2023-05-10T04:55:30.092Z,14.60
2023-05-10T04:59:40.208Z,14.10
2023-05-10T05:03:47.878Z,15.20
2023-05-10T05:07:57.352Z,15.80
2023-05-10T05:12:04.953Z,14.60
2023-05-10T05:16:14.023Z,14.20
2023-05-10T05:20:22.297Z,22.80
2023-05-10T05:24:29.912Z,12.60
2023-05-10T05:28:39.011Z,16.10
2023-05-10T05:32:48.305Z,14.50
2023-05-10T05:36:56.773Z,15.30
2023-05-10T05:41:05.115Z,13.70
2023-05-10T05:45:14.539Z,13.80
2023-05-10T05:49:25.370Z,12.80
2023-05-10T05:53:33.492Z,14.20
2023-05-10T05:57:42.051Z,13.90
2023-05-10T06:01:50.966Z,17.60
2023-05-10T06:05:58.888Z,16.90
2023-05-10T06:10:08.405Z,13.10
2023-05-10T06:14:16.143Z,13.90
2023-05-10T06:18:24.526Z,14.60
2023-05-10T06:22:33.026Z,12.40
2023-05-10T06:26:40.616Z,13.70
2023-05-10T06:30:49.063Z,12.30
2023-05-10T06:34:57.256Z,11.60
2023-05-10T06:39:05.020Z,11.20
2023-05-10T06:43:13.197Z,11.80
2023-05-10T06:47:21.613Z,10.50
2023-05-10T06:51:29.656Z,13.10
2023-05-10T06:55:37.362Z,10.80
2023-05-10T06:59:45.680Z,12.50
2023-05-10T07:03:53.986Z,14.90
2023-05-10T07:08:02.735Z,10.80
2023-05-10T07:12:14.693Z,14.30
2023-05-10T07:16:23.282Z,12.20
2023-05-10T07:20:31.164Z,11.40
2023-05-10T07:24:39.861Z,12.80
2023-05-10T07:28:51.250Z,9.30
2023-05-10T07:32:58.965Z,13.70
2023-05-10T07:37:07.378Z,10.10
2023-05-10T07:41:15.689Z,10.20
2023-05-10T07:45:24.529Z,11.20
2023-05-10T07:49:32.075Z,10.50
2023-05-10T07:53:40.280Z,9.20
2023-05-10T07:57:47.932Z,12.00
2023-05-10T08:01:55.674Z,9.10
2023-05-10T08:06:03.423Z,8.70
2023-05-10T08:10:13.642Z,10.50
2023-05-10T08:14:21.214Z,9.10
2023-05-10T08:18:29.591Z,9.00
2023-05-10T08:22:37.448Z,10.30
2023-05-10T08:26:56.960Z,10.10
2023-05-10T08:31:13.852Z,8.80
2023-05-10T08:35:25.415Z,8.30
2023-05-10T08:39:40.792Z,8.30
2023-05-10T08:43:53.271Z,9.70
2023-05-10T08:48:03.609Z,9.20
2023-05-10T08:52:19.685Z,8.00
2023-05-10T08:56:35.321Z,6.90
2023-05-10T09:00:47.518Z,7.90
2023-05-10T09:04:55.703Z,8.10
2023-05-10T09:09:04.404Z,8.90
2023-05-10T09:13:13.968Z,7.30
2023-05-10T09:17:22.153Z,7.90
2023-05-10T09:21:30.811Z,6.90
2023-05-10T09:25:39.757Z,8.50
2023-05-10T09:29:47.531Z,9.60
2023-05-10T09:33:56.094Z,12.00
2023-05-10T09:38:05.346Z,10.00
2023-05-10T09:42:14.065Z,10.10
2023-05-10T09:46:22.504Z,9.00
2023-05-10T09:50:31.633Z,8.70
2023-05-10T09:54:39.385Z,21.80
2023-05-10T09:58:47.306Z,8.30
2023-05-10T10:03:00.992Z,8.90
2023-05-10T10:07:11.486Z,7.50
2023-05-10T10:11:19.436Z,8.30
2023-05-10T10:15:28.608Z,9.00
2023-05-10T10:19:37.626Z,9.70
2023-05-10T10:23:46.431Z,7.40
2023-05-10T10:28:05.040Z,8.70
2023-05-10T10:32:24.660Z,7.80
2023-05-10T10:36:34.488Z,7.90
2023-05-10T10:40:42.538Z,6.80
2023-05-10T10:44:50.652Z,10.80
2023-05-10T10:49:14.608Z,8.40
2023-05-10T10:53:22.364Z,8.10
2023-05-10T10:57:31.337Z,8.80
2023-05-10T11:01:38.968Z,8.30
2023-05-10T11:05:47.934Z,8.00
2023-05-10T11:09:59.128Z,6.20
2023-05-10T11:14:09.401Z,7.90
2023-05-10T11:18:25.163Z,8.00
2023-05-10T11:22:33.441Z,7.80
2023-05-10T11:26:41.232Z,7.40
2023-05-10T11:30:48.699Z,8.90
2023-05-10T11:34:56.716Z,7.20
2023-05-10T11:39:05.012Z,5.80
2023-05-10T11:43:13.813Z,7.90
2023-05-10T11:47:22.883Z,6.20
2023-05-10T11:51:32.450Z,5.80
2023-05-10T11:55:40.295Z,6.50
2023-05-10T11:59:48.223Z,7.10
2023-05-10T12:03:59.900Z,6.50
2023-05-10T12:08:18.462Z,6.60
2023-05-10T12:12:26.320Z,5.80
2023-05-10T12:16:34.619Z,6.10
2023-05-10T12:20:43.604Z,6.70
2023-05-10T12:24:52.313Z,6.10
2023-05-10T12:29:16.843Z,6.40
2023-05-10T12:33:24.766Z,7.40
2023-05-10T12:37:37.942Z,7.20
2023-05-10T12:41:46.506Z,5.90
2023-05-10T12:45:54.330Z,6.60
2023-05-10T12:50:04.098Z,6.30
2023-05-10T12:54:11.877Z,6.60
2023-05-10T12:58:31.968Z,7.10
2023-05-10T13:02:43.469Z,13.80
2023-05-10T13:06:51.274Z,5.70
2023-05-10T13:11:04.033Z,8.50
2023-05-10T13:15:14.345Z,6.60
2023-05-10T13:19:22.582Z,6.50
2023-05-10T13:23:31.538Z,5.30
2023-05-10T13:27:39.663Z,7.00
2023-05-10T13:31:49.373Z,6.40
2023-05-10T13:35:57.419Z,6.90
2023-05-10T13:40:05.474Z,7.70
2023-05-10T13:44:14.137Z,5.10
2023-05-10T13:48:22.181Z,5.30
2023-05-10T13:52:30.728Z,6.90
2023-05-10T13:56:39.348Z,5.90
2023-05-10T14:00:47.921Z,7.20
2023-05-10T14:04:56.098Z,6.20
2023-05-10T14:09:03.972Z,6.70
2023-05-10T14:13:11.532Z,8.60
2023-05-10T14:17:19.621Z,6.30
2023-05-10T14:21:27.685Z,7.70
2023-05-10T14:25:36.027Z,6.30
2023-05-10T14:29:43.758Z,5.60
2023-05-10T14:33:51.846Z,7.20
2023-05-10T14:38:00.269Z,5.10
2023-05-10T14:42:08.334Z,8.90
2023-05-10T14:46:17.279Z,6.80
2023-05-10T14:54:42.060Z,5.50
2023-05-10T14:58:50.030Z,6.30
2023-05-10T15:02:58.989Z,6.20
2023-05-10T15:07:08.743Z,6.50
2023-05-10T15:11:19.199Z,5.30
2023-05-10T15:15:27.052Z,5.30
2023-05-10T15:19:35.667Z,6.10
2023-05-10T15:23:43.675Z,7.10
2023-05-10T15:27:51.412Z,6.40
2023-05-10T15:31:59.323Z,5.40
2023-05-10T15:36:09.021Z,6.50
2023-05-10T15:40:17.643Z,5.30
2023-05-10T15:44:26.311Z,7.50
2023-05-10T15:48:34.136Z,6.00
2023-05-10T15:52:42.459Z,5.30
2023-05-10T15:56:50.568Z,7.40
2023-05-10T16:00:59.168Z,5.20
2023-05-10T16:05:08.882Z,6.30
2023-05-10T16:09:17.551Z,9.60
2023-05-10T16:13:28.038Z,5.90
2023-05-10T16:17:35.723Z,5.70
2023-05-10T16:21:43.588Z,6.40
2023-05-10T16:25:51.533Z,6.40
2023-05-10T16:30:02.368Z,8.00
2023-05-10T16:34:10.640Z,6.70
2023-05-10T16:38:18.415Z,6.10
2023-05-10T16:42:26.647Z,7.70
2023-05-10T16:46:35.158Z,5.80
2023-05-10T16:50:46.048Z,5.70
2023-05-10T16:54:53.941Z,8.60
2023-05-10T16:59:03.967Z,6.80
2023-05-10T17:03:12.726Z,10.20
2023-05-10T17:07:22.650Z,7.10
2023-05-10T17:11:32.407Z,6.70
2023-05-10T17:15:41.412Z,9.10
2023-05-10T17:19:50.102Z,5.70
2023-05-10T17:23:57.866Z,7.50
2023-05-10T17:28:06.995Z,9.40
2023-05-10T17:32:14.652Z,6.40
2023-05-10T17:36:22.931Z,7.90
2023-05-10T17:40:30.888Z,8.80
2023-05-10T17:44:39.286Z,9.90
2023-05-10T17:48:47.306Z,10.90
2023-05-10T17:52:55.336Z,9.10
2023-05-10T17:57:03.853Z,10.60
2023-05-10T18:01:12.655Z,8.00
2023-05-10T18:05:21.896Z,8.50
2023-05-10T18:09:32.390Z,8.00
2023-05-10T18:13:40.818Z,7.20
2023-05-10T18:17:48.883Z,7.40
2023-05-10T18:21:56.758Z,8.20
2023-05-10T18:26:04.756Z,7.10
2023-05-10T18:30:14.853Z,8.40
2023-05-10T18:34:22.766Z,9.40
2023-05-10T18:38:31.469Z,7.00
2023-05-10T18:42:39.303Z,7.50
2023-05-10T18:46:46.815Z,6.90
2023-05-10T18:50:55.526Z,8.00
2023-05-10T18:55:06.884Z,11.60
2023-05-10T18:59:16.768Z,8.90
2023-05-10T19:03:24.224Z,9.80
2023-05-10T19:07:32.749Z,7.30
2023-05-10T19:11:40.220Z,8.70
2023-05-10T19:15:48.803Z,8.60
2023-05-10T19:19:57.750Z,9.30
2023-05-10T19:24:05.665Z,10.20
2023-05-10T19:28:13.655Z,11.20
2023-05-10T19:32:22.950Z,14.10
2023-05-10T19:36:31.253Z,11.70
2023-05-10T19:40:39.062Z,11.10
2023-05-10T19:44:47.393Z,11.00
2023-05-10T19:48:59.362Z,10.30
2023-05-10T19:53:09.795Z,10.10
2023-05-10T19:57:19.159Z,12.10
2023-05-10T20:01:27.059Z,13.70
2023-05-10T20:05:35.509Z,13.70
2023-05-10T20:09:43.320Z,10.60
2023-05-10T20:13:50.915Z,10.40
2023-05-10T20:17:58.739Z,8.00
2023-05-10T20:22:09.420Z,8.60
2023-05-10T20:26:17.172Z,8.70
2023-05-10T20:30:25.451Z,6.90
2023-05-10T20:34:33.789Z,8.50
2023-05-10T20:38:41.332Z,8.30
2023-05-10T20:42:49.792Z,8.70
2023-05-10T20:46:57.135Z,8.70
2023-05-10T20:51:06.770Z,9.40
2023-05-10T20:55:15.030Z,9.80
2023-05-10T20:59:23.665Z,8.50
2023-05-10T21:03:33.484Z,8.00
2023-05-10T21:07:41.497Z,8.60
2023-05-10T21:11:49.838Z,7.30
2023-05-10T21:15:59.378Z,10.50
2023-05-10T21:20:08.434Z,7.80
2023-05-10T21:24:16.966Z,8.90
2023-05-10T21:28:25.189Z,11.60
2023-05-10T21:32:34.536Z,12.00
2023-05-10T21:36:42.213Z,12.40
2023-05-10T21:40:50.089Z,12.80
2023-05-10T21:44:59.215Z,12.60
2023-05-10T21:49:07.224Z,15.60
2023-05-10T21:53:15.206Z,15.70
2023-05-10T21:57:23.225Z,16.00
2023-05-10T22:01:31.290Z,15.00
2023-05-10T22:05:39.209Z,13.80
2023-05-10T22:09:47.337Z,14.70
2023-05-10T22:13:55.208Z,12.50
2023-05-10T22:18:03.501Z,14.20
2023-05-10T22:22:11.380Z,14.90
2023-05-10T22:26:19.385Z,15.80
2023-05-10T22:30:27.125Z,16.50
2023-05-10T22:34:35.589Z,14.60
2023-05-10T22:38:48.535Z,16.30
2023-05-10T22:42:59.080Z,14.00
2023-05-10T22:47:09.604Z,15.20
2023-05-10T22:51:17.329Z,15.40
2023-05-10T22:55:25.259Z,13.50
2023-05-10T22:59:33.331Z,14.40
2023-05-10T23:03:41.251Z,13.40
2023-05-10T23:07:53.345Z,15.10
2023-05-10T23:12:01.306Z,13.50
2023-05-10T23:16:12.220Z,13.20
2023-05-10T23:20:20.470Z,13.60
2023-05-10T23:24:29.411Z,12.20
2023-05-10T23:28:37.205Z,13.30
2023-05-10T23:32:45.292Z,12.70
2023-05-10T23:36:52.913Z,14.10
2023-05-10T23:41:00.668Z,12.60
2023-05-10T23:45:10.050Z,11.40
2023-05-10T23:49:18.572Z,14.80
2023-05-10T23:53:27.104Z,15.30
2023-05-10T23:57:36.441Z,13.10
